sensor_id;sensor_type;location;lat;lon;timestamp;pressure;altitude;pressure_sealevel;temperature;humidity
7105;BME280;3594;42.152;24.714;2024-02-28T00:00:10;11022.69;;;7.03;nan
7105;BME280;3594;42.152;24.714;2024-02-28T00:02:36;11016.53;;;6.82;nan
7105;BME280;3594;42.152;24.714;2024-02-28T00:05:02;10060.16;;;6.95;nan
7105;BME280;3594;42.152;24.714;2024-02-28T00:07:27;9735.19;;;6.77;nan
7105;BME280;3594;42.152;24.714;2024-02-28T00:09:52;9420.63;;;6.97;nan
7105;BME280;3594;42.152;24.714;2024-02-28T00:12:25;8776.41;;;6.81;nan
7105;BME280;3594;42.152;24.714;2024-02-28T00:14:51;7811.63;;;6.58;nan
7105;BME280;3594;42.152;24.714;2024-02-28T00:17:16;7174.94;;;6.70;nan
7105;BME280;3594;42.152;24.714;2024-02-28T00:19:42;6858.00;;;6.82;nan
7105;BME280;3594;42.152;24.714;2024-02-28T00:22:09;6218.91;;;6.83;nan
7105;BME280;3594;42.152;24.714;2024-02-28T00:24:34;5256.19;;;6.62;nan
7105;BME280;3594;42.152;24.714;2024-02-28T00:27:00;5574.81;;;6.58;nan
7105;BME280;3594;42.152;24.714;2024-02-28T00:29:26;5574.50;;;6.57;nan
7105;BME280;3594;42.152;24.714;2024-02-28T00:31:51;4938.78;;;6.73;nan
7105;BME280;3594;42.152;24.714;2024-02-28T00:34:17;4940.44;;;6.82;nan
7105;BME280;3594;42.152;24.714;2024-02-28T00:36:43;5259.06;;;6.77;nan
7105;BME280;3594;42.152;24.714;2024-02-28T00:39:09;4938.22;;;6.70;nan
7105;BME280;3594;42.152;24.714;2024-02-28T00:41:35;3980.50;;;6.73;nan
7105;BME280;3594;42.152;24.714;2024-02-28T00:44:02;3341.16;;;6.69;nan
7105;BME280;3594;42.152;24.714;2024-02-28T00:46:28;2384.47;;;6.75;nan
7105;BME280;3594;42.152;24.714;2024-02-28T00:48:53;2383.94;;;6.72;nan
7105;BME280;3594;42.152;24.714;2024-02-28T00:51:18;2383.19;;;6.66;nan
7105;BME280;3594;42.152;24.714;2024-02-28T00:53:44;1423.31;;;6.48;nan
7105;BME280;3594;42.152;24.714;2024-02-28T00:56:09;783.59;;;6.33;nan
7105;BME280;3594;42.152;24.714;2024-02-28T00:58:35;145.28;;;6.27;nan
7105;BME280;3594;42.152;24.714;2024-02-28T01:01:01;-170.41;;;6.55;nan
7105;BME280;3594;42.152;24.714;2024-02-28T01:03:26;-492.09;;;6.28;nan
7105;BME280;3594;42.152;24.714;2024-02-28T01:05:52;-808.72;;;6.49;nan
7105;BME280;3594;42.152;24.714;2024-02-28T01:08:17;-1127.56;;;6.48;nan
7105;BME280;3594;42.152;24.714;2024-02-28T01:10:43;-1449.69;;;6.08;nan
7105;BME280;3594;42.152;24.714;2024-02-28T01:13:09;-1765.94;;;6.36;nan
7105;BME280;3594;42.152;24.714;2024-02-28T01:15:34;-2084.47;;;6.37;nan
7105;BME280;3594;42.152;24.714;2024-02-28T01:18:00;-2404.19;;;6.20;nan
7105;BME280;3594;42.152;24.714;2024-02-28T01:20:25;-2404.59;;;6.14;nan
7105;BME280;3594;42.152;24.714;2024-02-28T01:22:51;-2404.56;;;6.15;nan
7105;BME280;3594;42.152;24.714;2024-02-28T01:25:16;-3039.88;;;6.40;nan
7105;BME280;3594;42.152;24.714;2024-02-28T01:27:41;-3358.88;;;6.31;nan
7105;BME280;3594;42.152;24.714;2024-02-28T01:30:08;-3678.13;;;6.14;nan
7105;BME280;3594;42.152;24.714;2024-02-28T01:32:34;-3996.63;;;6.09;nan
7105;BME280;3594;42.152;24.714;2024-02-28T01:34:59;-4313.75;;;6.37;nan
7105;BME280;3594;42.152;24.714;2024-02-28T01:37:25;-4313.81;;;6.36;nan
7105;BME280;3594;42.152;24.714;2024-02-28T01:39:51;-3995.16;;;6.42;nan
7105;BME280;3594;42.152;24.714;2024-02-28T01:42:16;-3359.44;;;6.20;nan
7105;BME280;3594;42.152;24.714;2024-02-28T01:44:47;-3676.81;;;6.40;nan
7105;BME280;3594;42.152;24.714;2024-02-28T01:47:14;-3360.44;;;6.02;nan
7105;BME280;3594;42.152;24.714;2024-02-28T01:49:41;-3359.25;;;6.24;nan
7105;BME280;3594;42.152;24.714;2024-02-28T01:52:08;-3360.44;;;6.02;nan
7105;BME280;3594;42.152;24.714;2024-02-28T01:54:35;-3995.88;;;6.26;nan
7105;BME280;3594;42.152;24.714;2024-02-28T01:57:01;-3995.97;;;6.24;nan
7105;BME280;3594;42.152;24.714;2024-02-28T01:59:27;-3996.41;;;6.14;nan
7105;BME280;3594;42.152;24.714;2024-02-28T02:01:54;-4633.84;;;5.87;nan
7105;BME280;3594;42.152;24.714;2024-02-28T02:04:19;-4633.50;;;5.97;nan
7105;BME280;3594;42.152;24.714;2024-02-28T02:06:45;-5587.56;;;6.06;nan
7105;BME280;3594;42.152;24.714;2024-02-28T02:09:13;-5269.34;;;6.10;nan
7105;BME280;3594;42.152;24.714;2024-02-28T02:11:39;-5269.41;;;6.09;nan
7105;BME280;3594;42.152;24.714;2024-02-28T02:14:04;-5905.72;;;5.99;nan
7105;BME280;3594;42.152;24.714;2024-02-28T02:16:30;-5587.63;;;6.03;nan
7105;BME280;3594;42.152;24.714;2024-02-28T02:18:55;-5905.78;;;5.95;nan
7105;BME280;3594;42.152;24.714;2024-02-28T02:21:29;-5905.81;;;5.93;nan
7105;BME280;3594;42.152;24.714;2024-02-28T02:23:55;-5905.97;;;5.81;nan
7105;BME280;3594;42.152;24.714;2024-02-28T02:26:21;-5905.78;;;5.95;nan
7105;BME280;3594;42.152;24.714;2024-02-28T02:28:46;-6541.72;;;5.88;nan
7105;BME280;3594;42.152;24.714;2024-02-28T02:31:13;-6541.78;;;5.64;nan
7105;BME280;3594;42.152;24.714;2024-02-28T02:33:38;-6541.81;;;5.58;nan
7105;BME280;3594;42.152;24.714;2024-02-28T02:36:04;-6224.03;;;5.60;nan
7105;BME280;3594;42.152;24.714;2024-02-28T02:38:30;-6541.72;;;5.90;nan
7105;BME280;3594;42.152;24.714;2024-02-28T02:40:55;-6541.75;;;5.82;nan
7105;BME280;3594;42.152;24.714;2024-02-28T02:43:21;-6541.75;;;5.80;nan
7105;BME280;3594;42.152;24.714;2024-02-28T02:45:46;-7494.78;;;5.48;nan
7105;BME280;3594;42.152;24.714;2024-02-28T02:48:12;-7812.31;;;5.46;nan
7105;BME280;3594;42.152;24.714;2024-02-28T02:50:37;-7812.84;;;5.76;nan
7105;BME280;3594;42.152;24.714;2024-02-28T02:53:03;-7812.88;;;5.78;nan
7105;BME280;3594;42.152;24.714;2024-02-28T02:55:29;-8130.44;;;5.72;nan
7105;BME280;3594;42.152;24.714;2024-02-28T02:57:54;-8130.47;;;5.73;nan
7105;BME280;3594;42.152;24.714;2024-02-28T03:00:21;-8447.78;;;5.61;nan
7105;BME280;3594;42.152;24.714;2024-02-28T03:02:46;-8447.28;;;5.44;nan
7105;BME280;3594;42.152;24.714;2024-02-28T03:05:12;-8129.91;;;5.49;nan
7105;BME280;3594;42.152;24.714;2024-02-28T03:07:37;-8447.72;;;5.59;nan
7105;BME280;3594;42.152;24.714;2024-02-28T03:10:03;-8765.19;;;5.57;nan
7105;BME280;3594;42.152;24.714;2024-02-28T03:12:28;-9082.78;;;5.59;nan
7105;BME280;3594;42.152;24.714;2024-02-28T03:14:54;-9082.19;;;5.44;nan
7105;BME280;3594;42.152;24.714;2024-02-28T03:17:19;-9082.44;;;5.50;nan
7105;BME280;3594;42.152;24.714;2024-02-28T03:19:45;-9400.13;;;5.56;nan
7105;BME280;3594;42.152;24.714;2024-02-28T03:22:10;-9716.91;;;5.43;nan
7105;BME280;3594;42.152;24.714;2024-02-28T03:24:36;-9716.84;;;5.42;nan
7105;BME280;3594;42.152;24.714;2024-02-28T03:27:02;-9399.44;;;5.41;nan
7105;BME280;3594;42.152;24.714;2024-02-28T03:29:28;-9716.41;;;5.32;nan
7105;BME280;3594;42.152;24.714;2024-02-28T03:31:54;-10351.41;;;5.40;nan
7105;BME280;3594;42.152;24.714;2024-02-28T03:34:20;-10032.66;;;5.13;nan
7105;BME280;3594;42.152;24.714;2024-02-28T03:36:45;-10351.16;;;5.36;nan
7105;BME280;3594;42.152;24.714;2024-02-28T03:39:11;-10034.03;;;5.39;nan
7105;BME280;3594;42.152;24.714;2024-02-28T03:41:37;-10032.03;;;5.02;nan
7105;BME280;3594;42.152;24.714;2024-02-28T03:44:03;-10350.63;;;5.27;nan
7105;BME280;3594;42.152;24.714;2024-02-28T03:46:29;-10667.31;;;5.19;nan
7105;BME280;3594;42.152;24.714;2024-02-28T03:48:55;-10350.06;;;5.18;nan
7105;BME280;3594;42.152;24.714;2024-02-28T03:51:20;-9714.31;;;4.90;nan
7105;BME280;3594;42.152;24.714;2024-02-28T03:53:46;-9079.94;;;4.85;nan
7105;BME280;3594;42.152;24.714;2024-02-28T03:56:11;-8446.19;;;5.05;nan
7105;BME280;3594;42.152;24.714;2024-02-28T03:58:37;-8128.63;;;4.93;nan
7105;BME280;3594;42.152;24.714;2024-02-28T04:01:02;-8763.03;;;4.92;nan
7105;BME280;3594;42.152;24.714;2024-02-28T04:03:28;-9080.06;;;4.89;nan
7105;BME280;3594;42.152;24.714;2024-02-28T04:05:54;-9080.50;;;5.00;nan
7105;BME280;3594;42.152;24.714;2024-02-28T04:08:19;-8763.31;;;5.01;nan
7105;BME280;3594;42.152;24.714;2024-02-28T04:10:45;-8446.19;;;5.05;nan
7105;BME280;3594;42.152;24.714;2024-02-28T04:13:11;-7811.19;;;4.83;nan
7105;BME280;3594;42.152;24.714;2024-02-28T04:15:36;-7176.81;;;5.01;nan
7105;BME280;3594;42.152;24.714;2024-02-28T04:18:03;-5590.09;;;4.69;nan
7105;BME280;3594;42.152;24.714;2024-02-28T04:20:29;-5272.63;;;4.73;nan
7105;BME280;3594;42.152;24.714;2024-02-28T04:22:54;-5907.50;;;4.65;nan
7105;BME280;3594;42.152;24.714;2024-02-28T04:25:19;-5272.84;;;4.64;nan
7105;BME280;3594;42.152;24.714;2024-02-28T04:27:45;-4956.03;;;4.43;nan
7105;BME280;3594;42.152;24.714;2024-02-28T04:30:12;-5273.50;;;4.35;nan
7105;BME280;3594;42.152;24.714;2024-02-28T04:32:37;-4956.38;;;4.31;nan
7105;BME280;3594;42.152;24.714;2024-02-28T04:35:03;-4957.53;;;3.89;nan
7105;BME280;3594;42.152;24.714;2024-02-28T04:37:29;-5274.72;;;3.82;nan
7105;BME280;3594;42.152;24.714;2024-02-28T04:39:54;-5591.72;;;3.78;nan
7105;BME280;3594;42.152;24.714;2024-02-28T04:42:20;-5591.81;;;3.73;nan
7105;BME280;3594;42.152;24.714;2024-02-28T04:44:45;-5591.69;;;3.80;nan
7105;BME280;3594;42.152;24.714;2024-02-28T04:47:10;-5274.75;;;3.81;nan
7105;BME280;3594;42.152;24.714;2024-02-28T04:49:37;-4640.66;;;3.85;nan
7105;BME280;3594;42.152;24.714;2024-02-28T04:52:04;-4641.31;;;3.65;nan
7105;BME280;3594;42.152;24.714;2024-02-28T04:54:32;-5275.03;;;3.68;nan
7105;BME280;3594;42.152;24.714;2024-02-28T04:56:58;-5591.97;;;3.64;nan
7105;BME280;3594;42.152;24.714;2024-02-28T04:59:24;-5592.34;;;3.41;nan
7105;BME280;3594;42.152;24.714;2024-02-28T05:01:49;-5908.94;;;3.49;nan
7105;BME280;3594;42.152;24.714;2024-02-28T05:04:14;-6542.34;;;3.29;nan
7105;BME280;3594;42.152;24.714;2024-02-28T05:06:40;-7175.16;;;3.00;nan
7105;BME280;3594;42.152;24.714;2024-02-28T05:09:05;-7808.19;;;3.23;nan
7105;BME280;3594;42.152;24.714;2024-02-28T05:11:31;-7808.25;;;3.25;nan
7105;BME280;3594;42.152;24.714;2024-02-28T05:13:57;-8124.44;;;3.18;nan
7105;BME280;3594;42.152;24.714;2024-02-28T05:16:23;-7808.31;;;3.29;nan
7105;BME280;3594;42.152;24.714;2024-02-28T05:18:48;-7808.56;;;3.42;nan
7105;BME280;3594;42.152;24.714;2024-02-28T05:21:14;-8124.88;;;3.35;nan
7105;BME280;3594;42.152;24.714;2024-02-28T05:23:40;-9073.88;;;3.31;nan
7105;BME280;3594;42.152;24.714;2024-02-28T05:26:08;-10023.78;;;3.51;nan
7105;BME280;3594;42.152;24.714;2024-02-28T05:28:34;-10340.16;;;3.52;nan
7105;BME280;3594;42.152;24.714;2024-02-28T05:31:21;-10656.78;;;3.58;nan
7105;BME280;3594;42.152;24.714;2024-02-28T05:33:46;-10973.31;;;3.61;nan
7105;BME280;3594;42.152;24.714;2024-02-28T05:36:12;-11289.94;;;3.66;nan
7105;BME280;3594;42.152;24.714;2024-02-28T05:38:37;-11289.31;;;3.58;nan
7105;BME280;3594;42.152;24.714;2024-02-28T05:41:03;-11608.91;;;3.99;nan
7105;BME280;3594;42.152;24.714;2024-02-28T05:43:28;-11925.47;;;4.01;nan
7105;BME280;3594;42.152;24.714;2024-02-28T05:45:54;-11927.19;;;4.21;nan
7105;BME280;3594;42.152;24.714;2024-02-28T05:48:20;-11927.78;;;4.28;nan
7105;BME280;3594;42.152;24.714;2024-02-28T05:50:45;-11612.37;;;4.42;nan
7105;BME280;3594;42.152;24.714;2024-02-28T05:53:11;-10980.34;;;4.61;nan
7105;BME280;3594;42.152;24.714;2024-02-28T05:55:36;-10346.28;;;4.54;nan
7105;BME280;3594;42.152;24.714;2024-02-28T05:58:02;-9396.47;;;4.73;nan
7105;BME280;3594;42.152;24.714;2024-02-28T06:00:27;-8761.94;;;4.60;nan
7105;BME280;3594;42.152;24.714;2024-02-28T06:02:53;-8128.63;;;4.94;nan
7105;BME280;3594;42.152;24.714;2024-02-28T06:05:19;-7494.16;;;5.01;nan
7105;BME280;3594;42.152;24.714;2024-02-28T06:07:44;-6859.38;;;4.85;nan
7105;BME280;3594;42.152;24.714;2024-02-28T06:10:10;-6859.44;;;5.12;nan
7105;BME280;3594;42.152;24.714;2024-02-28T06:12:36;-7811.91;;;5.23;nan
7105;BME280;3594;42.152;24.714;2024-02-28T06:15:01;-6859.50;;;5.41;nan
7105;BME280;3594;42.152;24.714;2024-02-28T06:17:26;-6541.84;;;5.45;nan
7105;BME280;3594;42.152;24.714;2024-02-28T06:19:52;-5906.59;;;5.35;nan
7105;BME280;3594;42.152;24.714;2024-02-28T06:22:17;-5906.22;;;5.62;nan
7105;BME280;3594;42.152;24.714;2024-02-28T06:24:45;-6223.94;;;5.74;nan
7105;BME280;3594;42.152;24.714;2024-02-28T06:27:10;-6223.75;;;5.94;nan
7105;BME280;3594;42.152;24.714;2024-02-28T06:29:39;-4315.13;;;6.02;nan
7105;BME280;3594;42.152;24.714;2024-02-28T06:32:05;-3040.81;;;6.25;nan
7105;BME280;3594;42.152;24.714;2024-02-28T06:34:31;-2722.44;;;6.24;nan
7105;BME280;3594;42.152;24.714;2024-02-28T06:36:57;-1127.59;;;6.47;nan
7105;BME280;3594;42.152;24.714;2024-02-28T06:39:22;-489.75;;;6.50;nan
7105;BME280;3594;42.152;24.714;2024-02-28T06:41:48;10059.03;;;6.91;nan
7105;BME280;3594;42.152;24.714;2024-02-28T06:44:18;14227.13;;;7.05;nan
7105;BME280;3594;42.152;24.714;2024-02-28T06:46:44;21614.69;;;7.21;nan
7105;BME280;3594;42.152;24.714;2024-02-28T06:49:09;22580.50;;;7.25;nan
7105;BME280;3594;42.152;24.714;2024-02-28T06:51:35;20987.97;;;7.56;nan
7105;BME280;3594;42.152;24.714;2024-02-28T06:54:00;31620.19;;;7.68;nan
7105;BME280;3594;42.152;24.714;2024-02-28T06:56:26;34551.03;;;8.08;nan
7105;BME280;3594;42.152;24.714;2024-02-28T06:58:51;38112.53;;;8.16;nan
7105;BME280;3594;42.152;24.714;2024-02-28T07:01:17;44068.09;;;8.16;nan
7105;BME280;3594;42.152;24.714;2024-02-28T07:03:43;49802.84;;;8.40;nan
7105;BME280;3594;42.152;24.714;2024-02-28T07:06:09;51243.09;;;8.55;nan
7105;BME280;3594;42.152;24.714;2024-02-28T07:08:35;52926.03;;;8.68;nan
7105;BME280;3594;42.152;24.714;2024-02-28T07:11:00;52697.91;;;8.89;nan
7105;BME280;3594;42.152;24.714;2024-02-28T07:13:26;54099.13;;;8.82;nan
7105;BME280;3594;42.152;24.714;2024-02-28T07:15:52;56165.72;;;9.09;nan
7105;BME280;3594;42.152;24.714;2024-02-28T07:18:19;56692.91;;;8.83;nan
7105;BME280;3594;42.152;24.714;2024-02-28T07:20:45;57166.22;;;9.10;nan
7105;BME280;3594;42.152;24.714;2024-02-28T07:23:11;57570.06;;;9.33;nan
7105;BME280;3594;42.152;24.714;2024-02-28T07:25:37;57456.13;;;9.46;nan
7105;BME280;3594;42.152;24.714;2024-02-28T07:28:02;57780.66;;;9.56;nan
7105;BME280;3594;42.152;24.714;2024-02-28T07:30:28;58310.34;;;9.77;nan
7105;BME280;3594;42.152;24.714;2024-02-28T07:32:54;58269.38;;;9.58;nan
7105;BME280;3594;42.152;24.714;2024-02-28T07:35:20;58528.34;;;9.91;nan
7105;BME280;3594;42.152;24.714;2024-02-28T07:37:46;58835.00;;;10.08;nan
7105;BME280;3594;42.152;24.714;2024-02-28T07:40:12;58897.25;;;9.81;nan
7105;BME280;3594;42.152;24.714;2024-02-28T07:42:37;58942.47;;;10.13;nan
7105;BME280;3594;42.152;24.714;2024-02-28T07:45:03;59075.41;;;9.97;nan
7105;BME280;3594;42.152;24.714;2024-02-28T07:47:28;59094.09;;;10.28;nan
7105;BME280;3594;42.152;24.714;2024-02-28T07:49:54;59234.66;;;10.38;nan
7105;BME280;3594;42.152;24.714;2024-02-28T07:52:20;59423.56;;;10.45;nan
7105;BME280;3594;42.152;24.714;2024-02-28T07:54:45;59481.91;;;10.28;nan
7105;BME280;3594;42.152;24.714;2024-02-28T07:57:11;59478.94;;;10.04;nan
7105;BME280;3594;42.152;24.714;2024-02-28T07:59:44;58626.00;;;9.80;nan
7105;BME280;3594;42.152;24.714;2024-02-28T08:02:10;59014.22;;;10.04;nan
7105;BME280;3594;42.152;24.714;2024-02-28T08:04:38;58996.00;;;9.92;nan
7105;BME280;3594;42.152;24.714;2024-02-28T08:07:04;58928.75;;;9.72;nan
7105;BME280;3594;42.152;24.714;2024-02-28T08:09:29;58813.16;;;9.81;nan
7105;BME280;3594;42.152;24.714;2024-02-28T08:11:55;58777.97;;;10.09;nan
7105;BME280;3594;42.152;24.714;2024-02-28T08:14:20;59086.47;;;10.35;nan
7105;BME280;3594;42.152;24.714;2024-02-28T08:16:46;59205.56;;;10.51;nan
7105;BME280;3594;42.152;24.714;2024-02-28T08:19:12;59324.38;;;10.76;nan
7105;BME280;3594;42.152;24.714;2024-02-28T08:21:37;59542.50;;;10.95;nan
7105;BME280;3594;42.152;24.714;2024-02-28T08:24:03;59576.06;;;10.93;nan
7105;BME280;3594;42.152;24.714;2024-02-28T08:26:30;59669.34;;;11.16;nan
7105;BME280;3594;42.152;24.714;2024-02-28T08:28:56;59491.78;;;10.93;nan
7105;BME280;3594;42.152;24.714;2024-02-28T08:31:22;59786.47;;;11.11;nan
7105;BME280;3594;42.152;24.714;2024-02-28T08:33:47;59903.56;;;11.05;nan
7105;BME280;3594;42.152;24.714;2024-02-28T08:36:13;59779.81;;;11.04;nan
7105;BME280;3594;42.152;24.714;2024-02-28T08:38:39;59909.44;;;11.08;nan
7105;BME280;3594;42.152;24.714;2024-02-28T08:41:05;59903.59;;;10.94;nan
7105;BME280;3594;42.152;24.714;2024-02-28T08:43:30;59913.00;;;11.14;nan
7105;BME280;3594;42.152;24.714;2024-02-28T08:45:56;59977.19;;;11.35;nan
7105;BME280;3594;42.152;24.714;2024-02-28T08:48:21;60187.53;;;11.55;nan
7105;BME280;3594;42.152;24.714;2024-02-28T08:50:48;60154.16;;;11.36;nan
7105;BME280;3594;42.152;24.714;2024-02-28T08:53:13;60277.16;;;11.78;nan
7105;BME280;3594;42.152;24.714;2024-02-28T08:55:39;60250.13;;;11.79;nan
7105;BME280;3594;42.152;24.714;2024-02-28T08:58:04;60299.63;;;11.89;nan
7105;BME280;3594;42.152;24.714;2024-02-28T09:00:30;60309.91;;;12.01;nan
7105;BME280;3594;42.152;24.714;2024-02-28T09:02:55;60339.59;;;11.95;nan
7105;BME280;3594;42.152;24.714;2024-02-28T09:05:23;60376.66;;;12.19;nan
7105;BME280;3594;42.152;24.714;2024-02-28T09:07:48;60451.00;;;12.43;nan
7105;BME280;3594;42.152;24.714;2024-02-28T09:10:16;60489.59;;;12.33;nan
7105;BME280;3594;42.152;24.714;2024-02-28T09:12:46;60470.47;;;12.37;nan
7105;BME280;3594;42.152;24.714;2024-02-28T09:15:12;60509.53;;;12.33;nan
7105;BME280;3594;42.152;24.714;2024-02-28T09:17:37;60566.72;;;12.48;nan
7105;BME280;3594;42.152;24.714;2024-02-28T09:20:03;60561.22;;;12.82;nan
7105;BME280;3594;42.152;24.714;2024-02-28T09:22:29;60523.25;;;12.87;nan
7105;BME280;3594;42.152;24.714;2024-02-28T09:24:54;60559.84;;;13.11;nan
7105;BME280;3594;42.152;24.714;2024-02-28T09:27:20;60636.19;;;13.26;nan
7105;BME280;3594;42.152;24.714;2024-02-28T09:29:45;60606.06;;;13.06;nan
7105;BME280;3594;42.152;24.714;2024-02-28T09:32:11;60649.72;;;13.18;nan
7105;BME280;3594;42.152;24.714;2024-02-28T09:34:37;60647.56;;;13.27;nan
7105;BME280;3594;42.152;24.714;2024-02-28T09:37:02;60736.03;;;13.52;nan
7105;BME280;3594;42.152;24.714;2024-02-28T09:39:29;60785.91;;;13.53;nan
7105;BME280;3594;42.152;24.714;2024-02-28T09:41:54;60790.81;;;13.66;nan
7105;BME280;3594;42.152;24.714;2024-02-28T09:44:21;60759.94;;;13.39;nan
7105;BME280;3594;42.152;24.714;2024-02-28T09:46:50;60816.31;;;13.76;nan
7105;BME280;3594;42.152;24.714;2024-02-28T09:49:18;60841.44;;;13.75;nan
7105;BME280;3594;42.152;24.714;2024-02-28T09:51:44;60769.22;;;13.61;nan
7105;BME280;3594;42.152;24.714;2024-02-28T09:54:10;60830.34;;;13.56;nan
7105;BME280;3594;42.152;24.714;2024-02-28T09:56:35;60804.91;;;13.42;nan
7105;BME280;3594;42.152;24.714;2024-02-28T09:59:02;60804.81;;;13.31;nan
7105;BME280;3594;42.152;24.714;2024-02-28T10:01:28;60684.59;;;12.80;nan
7105;BME280;3594;42.152;24.714;2024-02-28T10:03:55;60717.59;;;13.14;nan
7105;BME280;3594;42.152;24.714;2024-02-28T10:06:23;60748.63;;;13.33;nan
7105;BME280;3594;42.152;24.714;2024-02-28T10:08:48;60930.53;;;13.67;nan
7105;BME280;3594;42.152;24.714;2024-02-28T10:11:24;60870.41;;;13.99;nan
7105;BME280;3594;42.152;24.714;2024-02-28T10:13:50;60942.72;;;14.08;nan
7105;BME280;3594;42.152;24.714;2024-02-28T10:16:16;60863.59;;;14.13;nan
7105;BME280;3594;42.152;24.714;2024-02-28T10:18:45;60918.25;;;14.21;nan
7105;BME280;3594;42.152;24.714;2024-02-28T10:21:11;60877.69;;;13.89;nan
7105;BME280;3594;42.152;24.714;2024-02-28T10:23:43;60870.16;;;13.80;nan
7105;BME280;3594;42.152;24.714;2024-02-28T10:26:10;60911.47;;;13.83;nan
7105;BME280;3594;42.152;24.714;2024-02-28T10:28:39;60810.06;;;13.58;nan
7105;BME280;3594;42.152;24.714;2024-02-28T10:31:06;60940.50;;;14.23;nan
7105;BME280;3594;42.152;24.714;2024-02-28T10:33:32;60903.31;;;13.94;nan
7105;BME280;3594;42.152;24.714;2024-02-28T10:35:59;60896.00;;;14.03;nan
7105;BME280;3594;42.152;24.714;2024-02-28T10:38:26;60886.13;;;13.81;nan
7105;BME280;3594;42.152;24.714;2024-02-28T10:40:53;60929.44;;;13.83;nan
7105;BME280;3594;42.152;24.714;2024-02-28T10:43:19;60860.34;;;13.69;nan
7105;BME280;3594;42.152;24.714;2024-02-28T10:45:45;60940.41;;;14.11;nan
7105;BME280;3594;42.152;24.714;2024-02-28T10:48:14;60944.66;;;13.96;nan
7105;BME280;3594;42.152;24.714;2024-02-28T10:50:39;60883.25;;;14.15;nan
7105;BME280;3594;42.152;24.714;2024-02-28T10:53:15;60917.50;;;13.97;nan
7105;BME280;3594;42.152;24.714;2024-02-28T10:55:41;60902.50;;;14.07;nan
7105;BME280;3594;42.152;24.714;2024-02-28T10:58:08;60991.06;;;14.20;nan
7105;BME280;3594;42.152;24.714;2024-02-28T11:00:39;60968.78;;;14.02;nan
7105;BME280;3594;42.152;24.714;2024-02-28T11:03:07;60961.13;;;14.34;nan
7105;BME280;3594;42.152;24.714;2024-02-28T11:05:42;60936.00;;;14.35;nan
7105;BME280;3594;42.152;24.714;2024-02-28T11:08:26;60974.13;;;14.46;nan
7105;BME280;3594;42.152;24.714;2024-02-28T11:10:57;61026.09;;;14.63;nan
7105;BME280;3594;42.152;24.714;2024-02-28T11:13:27;61021.06;;;14.90;nan
7105;BME280;3594;42.152;24.714;2024-02-28T11:15:53;61078.91;;;15.19;nan
7105;BME280;3594;42.152;24.714;2024-02-28T11:18:20;61165.97;;;15.46;nan
7105;BME280;3594;42.152;24.714;2024-02-28T11:20:46;61161.13;;;15.44;nan
7105;BME280;3594;42.152;24.714;2024-02-28T11:23:13;61172.50;;;15.50;nan
7105;BME280;3594;42.152;24.714;2024-02-28T11:25:40;61098.28;;;15.07;nan
7105;BME280;3594;42.152;24.714;2024-02-28T11:28:05;61059.59;;;14.58;nan
7105;BME280;3594;42.152;24.714;2024-02-28T11:30:32;61045.19;;;14.47;nan
7105;BME280;3594;42.152;24.714;2024-02-28T11:32:58;61094.59;;;14.48;nan
7105;BME280;3594;42.152;24.714;2024-02-28T11:35:27;61071.94;;;14.53;nan
7105;BME280;3594;42.152;24.714;2024-02-28T11:37:56;61039.25;;;14.24;nan
7105;BME280;3594;42.152;24.714;2024-02-28T11:40:25;61018.88;;;14.31;nan
7105;BME280;3594;42.152;24.714;2024-02-28T11:42:54;61086.94;;;14.64;nan
7105;BME280;3594;42.152;24.714;2024-02-28T11:45:20;61098.44;;;14.77;nan
7105;BME280;3594;42.152;24.714;2024-02-28T11:47:46;61129.09;;;15.27;nan
7105;BME280;3594;42.152;24.714;2024-02-28T11:50:13;61180.00;;;15.27;nan
7105;BME280;3594;42.152;24.714;2024-02-28T11:52:40;61192.50;;;15.70;nan
7105;BME280;3594;42.152;24.714;2024-02-28T11:55:06;61212.38;;;15.63;nan
7105;BME280;3594;42.152;24.714;2024-02-28T11:57:31;61274.94;;;16.07;nan
7105;BME280;3594;42.152;24.714;2024-02-28T12:00:08;61315.13;;;16.39;nan
7105;BME280;3594;42.152;24.714;2024-02-28T12:02:52;61259.03;;;16.18;nan
7105;BME280;3594;42.152;24.714;2024-02-28T12:05:19;61281.81;;;16.09;nan
7105;BME280;3594;42.152;24.714;2024-02-28T12:07:45;61265.91;;;15.99;nan
7105;BME280;3594;42.152;24.714;2024-02-28T12:10:10;61280.53;;;15.96;nan
7105;BME280;3594;42.152;24.714;2024-02-28T12:12:36;61300.47;;;16.05;nan
7105;BME280;3594;42.152;24.714;2024-02-28T12:15:01;61252.00;;;16.10;nan
7105;BME280;3594;42.152;24.714;2024-02-28T12:17:30;61248.78;;;16.14;nan
7105;BME280;3594;42.152;24.714;2024-02-28T12:19:56;61313.28;;;16.09;nan
7105;BME280;3594;42.152;24.714;2024-02-28T12:22:21;61377.25;;;16.62;nan
7105;BME280;3594;42.152;24.714;2024-02-28T12:24:47;61341.06;;;16.66;nan
7105;BME280;3594;42.152;24.714;2024-02-28T12:27:13;61398.69;;;16.86;nan
7105;BME280;3594;42.152;24.714;2024-02-28T12:29:39;61466.63;;;16.84;nan
7105;BME280;3594;42.152;24.714;2024-02-28T12:32:04;61364.72;;;16.55;nan
7105;BME280;3594;42.152;24.714;2024-02-28T12:34:30;61419.00;;;16.88;nan
7105;BME280;3594;42.152;24.714;2024-02-28T12:36:55;61315.44;;;16.37;nan
7105;BME280;3594;42.152;24.714;2024-02-28T12:39:21;61393.53;;;16.44;nan
7105;BME280;3594;42.152;24.714;2024-02-28T12:41:47;61371.97;;;16.50;nan
7105;BME280;3594;42.152;24.714;2024-02-28T12:44:13;61302.84;;;16.55;nan
7105;BME280;3594;42.152;24.714;2024-02-28T12:46:39;61456.19;;;17.14;nan
7105;BME280;3594;42.152;24.714;2024-02-28T12:49:04;61432.00;;;17.20;nan
7105;BME280;3594;42.152;24.714;2024-02-28T12:51:39;61469.53;;;17.60;nan
7105;BME280;3594;42.152;24.714;2024-02-28T12:54:06;61372.06;;;16.83;nan
7105;BME280;3594;42.152;24.714;2024-02-28T12:56:33;61378.19;;;16.76;nan
7105;BME280;3594;42.152;24.714;2024-02-28T12:58:59;61444.50;;;16.90;nan
7105;BME280;3594;42.152;24.714;2024-02-28T13:01:25;61421.06;;;17.03;nan
7105;BME280;3594;42.152;24.714;2024-02-28T13:03:50;61442.63;;;17.18;nan
7105;BME280;3594;42.152;24.714;2024-02-28T13:06:16;61484.09;;;17.46;nan
7105;BME280;3594;42.152;24.714;2024-02-28T13:08:41;61475.69;;;17.34;nan
7105;BME280;3594;42.152;24.714;2024-02-28T13:11:07;61509.16;;;17.59;nan
7105;BME280;3594;42.152;24.714;2024-02-28T13:13:33;61501.34;;;17.63;nan
7105;BME280;3594;42.152;24.714;2024-02-28T13:16:01;61505.75;;;17.56;nan
7105;BME280;3594;42.152;24.714;2024-02-28T13:18:26;61497.81;;;17.49;nan
7105;BME280;3594;42.152;24.714;2024-02-28T13:20:52;61477.09;;;17.53;nan
7105;BME280;3594;42.152;24.714;2024-02-28T13:23:18;61449.59;;;17.31;nan
7105;BME280;3594;42.152;24.714;2024-02-28T13:25:46;61461.84;;;17.19;nan
7105;BME280;3594;42.152;24.714;2024-02-28T13:28:11;61439.34;;;17.27;nan
7105;BME280;3594;42.152;24.714;2024-02-28T13:30:37;61665.75;;;17.23;nan
7105;BME280;3594;42.152;24.714;2024-02-28T13:33:03;61454.16;;;17.14;nan